Time;durP1;ratioP1;P1;durP2;ratioP2;P2;SDS_P1;SDS_P2;PMS_P1;PMS_P2;Temp;Humidity;BMP_temperature;BMP_pressure;BME280_temperature;BME280_humidity;BME280_pressure;Samples;Min_cycle;Max_cycle;Signal;HPM_P1;HPM_P2
2021/12/16 00:01:56;;;;;;;17.87;13.30;;;4.60;99.90;;;;;;4972490;28;20476;-93
2021/12/16 00:07:56;;;;;;;16.23;12.37;;;4.60;99.90;;;;;;4979096;28;20553;-94
2021/12/16 00:10:29;;;;;;;16.67;11.43;;;4.70;99.90;;;;;;4977680;28;20478;-94
2021/12/16 00:30:00;;;;;;;17.40;12.70;;;4.60;99.90;;;;;;4976802;28;20488;-95
2021/12/16 00:35:14;;;;;;;15.67;12.57;;;4.50;99.90;;;;;;4977220;28;20460;-96
2021/12/16 00:37:43;;;;;;;16.40;12.33;;;4.50;99.90;;;;;;4959586;28;20821;-95
2021/12/16 00:40:26;;;;;;;17.97;12.50;;;4.60;99.90;;;;;;4956127;28;20463;-95
2021/12/16 00:42:57;;;;;;;15.03;10.87;;;4.70;99.90;;;;;;4960343;28;20462;-95
2021/12/16 00:45:36;;;;;;;14.60;10.73;;;4.70;99.90;;;;;;4957480;28;20460;-95
2021/12/16 00:48:21;;;;;;;15.70;12.30;;;4.70;99.90;;;;;;4978044;28;20538;-95
2021/12/16 00:56:06;;;;;;;16.73;11.47;;;4.60;99.90;;;;;;4971717;28;20451;-95
2021/12/16 00:58:43;;;;;;;16.17;11.10;;;4.60;99.90;;;;;;4958058;28;20563;-94
2021/12/16 01:01:26;;;;;;;14.80;10.00;;;4.60;99.90;;;;;;4971221;28;20527;-94
2021/12/16 01:06:53;;;;;;;13.50;10.20;;;4.60;99.90;;;;;;4972270;28;20528;-95
2021/12/16 01:51:56;;;;;;;18.43;11.73;;;4.50;99.90;;;;;;4970640;28;20493;-95
2021/12/16 01:57:09;;;;;;;17.43;12.30;;;4.50;99.90;;;;;;4976168;28;20473;-94
2021/12/16 02:00:07;;;;;;;18.83;13.20;;;4.60;99.90;;;;;;4975496;28;20452;-93
2021/12/16 02:02:45;;;;;;;19.43;13.60;;;4.60;99.90;;;;;;4976339;28;20447;-95
2021/12/16 02:05:28;;;;;;;21.70;13.60;;;4.60;99.90;;;;;;4980395;28;20465;-95
2021/12/16 02:08:17;;;;;;;20.80;14.93;;;4.60;99.90;;;;;;4963964;28;20445;-94
2021/12/16 02:10:50;;;;;;;23.07;15.00;;;4.60;99.90;;;;;;4982468;28;20969;-94
2021/12/16 02:28:33;;;;;;;21.07;14.00;;;4.60;99.90;;;;;;4980323;28;20498;-93
2021/12/16 02:36:30;;;;;;;23.03;14.50;;;4.40;99.90;;;;;;4908479;28;20444;-94
2021/12/16 02:39:09;;;;;;;18.83;13.03;;;4.40;99.90;;;;;;4974140;28;20558;-94
2021/12/16 02:41:38;;;;;;;20.73;14.07;;;4.40;99.90;;;;;;4964792;28;20460;-95
2021/12/16 02:44:23;;;;;;;26.53;15.00;;;4.40;99.90;;;;;;4963398;28;20486;-93
2021/12/16 02:49:40;;;;;;;23.40;13.87;;;4.20;99.90;;;;;;4980434;28;20462;-95
2021/12/16 02:52:14;;;;;;;24.97;15.13;;;4.20;99.90;;;;;;4978494;28;20495;-94
2021/12/16 02:54:41;;;;;;;23.73;15.37;;;4.20;99.90;;;;;;4965262;28;20457;-95
2021/12/16 02:57:07;;;;;;;23.37;13.97;;;4.30;99.90;;;;;;4965660;28;20904;-95
2021/12/16 02:59:36;;;;;;;24.67;14.53;;;4.30;99.90;;;;;;4973867;28;20499;-94
2021/12/16 03:02:10;;;;;;;22.00;13.20;;;4.30;99.90;;;;;;4963674;28;20474;-94
2021/12/16 03:04:37;;;;;;;16.63;10.93;;;4.20;99.90;;;;;;4977814;28;20444;-94
2021/12/16 03:07:11;;;;;;;16.50;10.53;;;4.20;99.90;;;;;;4964456;28;20466;-94
2021/12/16 03:29:17;;;;;;;11.87;8.20;;;4.00;99.90;;;;;;4975412;28;20829;-95
2021/12/16 03:32:03;;;;;;;13.00;8.47;;;4.00;99.90;;;;;;4975299;28;20480;-93
2021/12/16 03:34:44;;;;;;;11.27;7.60;;;4.00;99.90;;;;;;4978601;28;20834;-93
2021/12/16 03:37:21;;;;;;;10.80;8.03;;;4.00;99.90;;;;;;4976413;28;20454;-93
2021/12/16 03:40:22;;;;;;;14.67;8.60;;;4.10;99.90;;;;;;4953201;28;20569;-93
2021/12/16 03:42:57;;;;;;;13.57;8.57;;;4.00;99.90;;;;;;4957915;28;20450;-93
2021/12/16 03:48:51;;;;;;;13.00;8.27;;;4.10;99.90;;;;;;4978023;28;20496;-94
2021/12/16 03:51:29;;;;;;;14.43;8.20;;;4.10;99.90;;;;;;4956813;28;20840;-93
2021/12/16 03:54:03;;;;;;;12.70;8.67;;;4.20;99.90;;;;;;4972127;28;20488;-94
2021/12/16 03:56:29;;;;;;;11.97;8.70;;;4.20;99.90;;;;;;4959340;28;20473;-93
2021/12/16 03:58:56;;;;;;;16.50;9.00;;;4.10;99.90;;;;;;4962344;28;20461;-93
2021/12/16 04:01:41;;;;;;;12.10;8.47;;;4.20;99.90;;;;;;4962721;28;20471;-94
2021/12/16 04:04:07;;;;;;;15.30;9.23;;;4.10;99.90;;;;;;4964004;28;20556;-94
2021/12/16 04:06:57;;;;;;;12.53;8.37;;;4.10;99.90;;;;;;4981702;28;20847;-93
2021/12/16 04:09:23;;;;;;;19.43;8.87;;;4.10;99.90;;;;;;4962369;28;20473;-95
2021/12/16 04:12:11;;;;;;;12.73;8.83;;;4.20;99.90;;;;;;4971434;28;21030;-94
2021/12/16 04:14:40;;;;;;;15.70;9.30;;;4.10;99.90;;;;;;4978692;28;20460;-95
2021/12/16 04:17:09;;;;;;;13.43;8.90;;;4.10;99.90;;;;;;4973900;28;20455;-94
2021/12/16 04:19:35;;;;;;;13.90;9.23;;;4.10;99.90;;;;;;4960579;28;20454;-94
2021/12/16 04:22:09;;;;;;;14.50;9.17;;;4.00;99.90;;;;;;4964033;28;20488;-94
2021/12/16 04:24:36;;;;;;;10.67;7.87;;;4.20;99.90;;;;;;4960211;28;20478;-94
2021/12/16 04:27:04;;;;;;;15.73;9.60;;;4.10;99.90;;;;;;4980104;28;20857;-94
2021/12/16 04:29:38;;;;;;;13.93;9.43;;;4.10;99.90;;;;;;4964176;28;21473;-94
2021/12/16 04:32:08;;;;;;;11.53;8.43;;;4.10;99.90;;;;;;4977868;28;21125;-93
2021/12/16 04:34:34;;;;;;;13.40;8.80;;;4.20;99.90;;;;;;4964921;28;20454;-94
2021/12/16 04:37:09;;;;;;;13.13;8.57;;;4.20;99.90;;;;;;4981743;28;20441;-94
2021/12/16 04:42:53;;;;;;;15.97;8.60;;;4.10;99.90;;;;;;4977102;28;20442;-94
2021/12/16 04:45:45;;;;;;;12.93;8.80;;;4.00;99.90;;;;;;4980200;28;20462;-95
2021/12/16 04:48:11;;;;;;;12.13;7.80;;;4.10;99.90;;;;;;4974062;28;20443;-94
2021/12/16 04:50:37;;;;;;;13.73;8.53;;;4.10;99.90;;;;;;4961494;28;20445;-94
2021/12/16 04:53:25;;;;;;;15.63;9.47;;;4.10;99.90;;;;;;4948051;28;20490;-94
2021/12/16 04:55:52;;;;;;;13.03;8.43;;;4.10;99.90;;;;;;4958914;28;20464;-93
2021/12/16 04:58:18;;;;;;;15.60;8.93;;;4.20;99.90;;;;;;4982376;28;20481;-95
2021/12/16 05:01:17;;;;;;;17.40;9.20;;;4.10;99.90;;;;;;4960523;28;20455;-95
2021/12/16 05:03:43;;;;;;;16.93;9.30;;;4.10;99.90;;;;;;4975569;28;20698;-94
2021/12/16 05:06:09;;;;;;;17.17;10.20;;;4.00;99.90;;;;;;4964112;28;20955;-95
2021/12/16 05:08:44;;;;;;;18.20;10.93;;;4.00;99.90;;;;;;4961704;28;20463;-95
2021/12/16 05:11:13;;;;;;;17.00;9.70;;;4.10;99.90;;;;;;4960434;28;20866;-95
2021/12/16 05:13:43;;;;;;;16.50;11.03;;;4.20;99.90;;;;;;4962898;28;20192;-94
2021/12/16 05:16:09;;;;;;;16.20;11.80;;;4.20;99.90;;;;;;4959137;28;20446;-96
2021/12/16 05:18:38;;;;;;;17.20;10.17;;;4.10;99.90;;;;;;4960861;28;20512;-94
2021/12/16 05:24:28;;;;;;;16.90;10.63;;;4.10;99.90;;;;;;4985470;28;21476;-95
2021/12/16 05:27:11;;;;;;;16.07;11.40;;;4.00;99.90;;;;;;4971256;28;21145;-96
2021/12/16 05:29:39;;;;;;;17.73;10.17;;;4.00;99.90;;;;;;4976330;28;20531;-96
2021/12/16 05:32:06;;;;;;;16.20;9.73;;;4.10;99.90;;;;;;4981975;28;20987;-96
2021/12/16 05:34:45;;;;;;;;;;;;;;;;;;;;;
2021/12/16 05:37:33;;;;;;;16.90;9.53;;;4.20;99.90;;;;;;4993594;28;20460;-94
2021/12/16 05:40:05;;;;;;;15.97;9.57;;;4.10;99.90;;;;;;4988076;28;20462;-96
2021/12/16 05:42:40;;;;;;;15.20;9.67;;;4.00;99.90;;;;;;5010884;28;20793;-96
2021/12/16 05:45:33;;;;;;;18.67;11.03;;;4.10;99.90;;;;;;4998234;28;20455;-94
2021/12/16 05:48:11;;;;;;;14.80;9.10;;;4.00;99.90;;;;;;4982495;28;20463;-96
2021/12/16 05:50:46;;;;;;;14.30;7.77;;;3.90;99.90;;;;;;4982409;28;20483;-96
2021/12/16 05:53:37;;;;;;;17.17;10.17;;;4.00;99.90;;;;;;4996278;28;20468;-94
2021/12/16 05:56:09;;;;;;;15.70;10.87;;;4.00;99.90;;;;;;4990489;28;20441;-93
2021/12/16 05:58:48;;;;;;;15.50;9.73;;;4.00;99.90;;;;;;4989558;28;20464;-96
2021/12/16 06:01:27;;;;;;;20.47;13.13;;;4.10;99.90;;;;;;4976492;28;20462;-96
2021/12/16 06:04:20;;;;;;;14.60;10.50;;;4.10;99.90;;;;;;4967574;28;20502;-95
2021/12/16 06:06:51;;;;;;;14.83;10.30;;;4.10;99.90;;;;;;4955290;28;20487;-96
2021/12/16 06:09:26;;;;;;;14.63;9.40;;;4.00;99.90;;;;;;4943173;28;20590;-96
2021/12/16 06:11:54;;;;;;;13.40;9.70;;;4.00;99.90;;;;;;4954993;28;20485;-96
2021/12/16 06:14:53;;;;;;;16.30;10.10;;;4.00;99.90;;;;;;4943864;28;20831;-96
2021/12/16 06:29:18;;;;;;;14.77;9.83;;;4.10;99.90;;;;;;4967150;28;20475;-95
2021/12/16 06:31:47;;;;;;;17.90;11.67;;;4.10;99.90;;;;;;4942629;28;20495;-94
2021/12/16 06:34:13;;;;;;;17.97;12.13;;;4.10;99.90;;;;;;4941806;28;20468;-95
2021/12/16 06:36:39;;;;;;;17.40;11.63;;;4.00;99.90;;;;;;4955859;28;21050;-94
2021/12/16 06:39:29;;;;;;;16.00;11.87;;;4.10;99.90;;;;;;4952904;28;20479;-94
2021/12/16 06:42:05;;;;;;;15.27;11.03;;;4.20;99.90;;;;;;4952173;28;20467;-91
2021/12/16 06:45:26;;;;;;;;;;;;;;;;;;;;;
2021/12/16 06:47:52;;;;;;;26.00;16.10;;;4.20;99.90;;;;;;4941601;28;20458;-93
2021/12/16 06:53:05;;;;;;;18.13;12.30;;;4.20;99.90;;;;;;4959272;28;20490;-87
2021/12/16 06:55:45;;;;;;;15.97;11.30;;;4.30;99.90;;;;;;4948431;28;20859;-94
2021/12/16 06:58:29;;;;;;;21.70;13.57;;;4.20;99.90;;;;;;4962224;28;20918;-94
2021/12/16 07:01:07;;;;;;;15.57;11.67;;;4.20;99.90;;;;;;4954957;28;20942;-93
2021/12/16 07:03:57;;;;;;;;;;;;;;;;;;;;;
2021/12/16 07:06:31;;;;;;;15.00;10.63;;;4.30;99.90;;;;;;4958415;28;20442;-92
2021/12/16 07:09:11;;;;;;;14.30;9.90;;;4.30;99.90;;;;;;4954247;28;20456;-92
2021/12/16 07:11:48;;;;;;;15.30;10.50;;;4.30;99.90;;;;;;4954126;28;20468;-93
2021/12/16 07:14:19;;;;;;;16.20;10.27;;;4.30;99.90;;;;;;4941817;28;20559;-93
2021/12/16 07:16:48;;;;;;;14.50;10.23;;;4.30;99.90;;;;;;4955678;28;20494;-95
2021/12/16 07:19:14;;;;;;;17.10;11.47;;;4.30;99.90;;;;;;4942961;28;20532;-92
2021/12/16 07:21:42;;;;;;;17.63;11.43;;;4.30;99.90;;;;;;4940813;28;20508;-93
2021/12/16 07:24:12;;;;;;;16.60;11.87;;;4.30;99.90;;;;;;4958013;28;20499;-92
2021/12/16 07:26:41;;;;;;;17.87;12.23;;;4.30;99.90;;;;;;4955936;28;20845;-92
2021/12/16 07:29:08;;;;;;;21.20;12.63;;;4.30;99.90;;;;;;4946575;28;20943;-95
2021/12/16 07:31:39;;;;;;;17.90;11.77;;;4.30;99.90;;;;;;4962135;28;20507;-95
2021/12/16 07:34:07;;;;;;;21.10;13.03;;;4.30;99.90;;;;;;4958015;28;20514;-95
2021/12/16 07:36:35;;;;;;;19.00;11.80;;;4.30;99.90;;;;;;4961854;28;20461;-95
2021/12/16 07:39:29;;;;;;;19.07;10.83;;;4.30;99.90;;;;;;4945525;28;20493;-93
2021/12/16 07:41:57;;;;;;;16.70;11.03;;;4.30;99.90;;;;;;4941899;28;20464;-95
2021/12/16 07:44:24;;;;;;;17.57;10.50;;;4.40;99.90;;;;;;4942730;28;20500;-94
2021/12/16 07:47:05;;;;;;;16.57;10.33;;;4.40;99.90;;;;;;4954389;28;21352;-96
2021/12/16 07:49:46;;;;;;;18.90;11.37;;;4.40;99.90;;;;;;4953864;28;20562;-94
2021/12/16 07:52:16;;;;;;;19.93;11.73;;;4.50;99.90;;;;;;4935384;28;20530;-95
2021/12/16 07:54:45;;;;;;;16.13;9.90;;;4.40;99.90;;;;;;4956605;28;20512;-95
2021/12/16 07:57:10;;;;;;;16.07;10.00;;;4.50;99.90;;;;;;4956481;28;20474;-91
2021/12/16 07:59:37;;;;;;;19.00;12.67;;;4.50;99.90;;;;;;4951898;28;21036;-92
2021/12/16 08:02:05;;;;;;;25.30;16.50;;;4.50;99.90;;;;;;4947532;28;20200;-92
2021/12/16 08:04:31;;;;;;;19.63;12.03;;;4.50;99.90;;;;;;4938329;28;21168;-93
2021/12/16 08:07:22;;;;;;;18.40;11.87;;;4.50;99.90;;;;;;4950286;28;20450;-91
2021/12/16 08:14:19;;;;;;;16.80;10.37;;;4.60;99.90;;;;;;4890928;29;20506;-93
2021/12/16 08:17:09;;;;;;;;;;;;;;;;;;;;;
2021/12/16 08:19:45;;;;;;;19.13;11.63;;;4.80;99.90;;;;;;4952025;28;20476;-93
2021/12/16 08:22:27;;;;;;;18.20;10.93;;;4.80;99.90;;;;;;4942675;28;20483;-96
2021/12/16 08:28:21;;;;;;;20.23;11.50;;;4.90;99.90;;;;;;4903538;28;20469;-93
2021/12/16 08:30:50;;;;;;;18.17;12.00;;;4.70;99.90;;;;;;4957690;28;20486;-94
2021/12/16 09:04:51;;;;;;;35.17;27.20;;;5.10;99.90;;;;;;4952159;28;21082;-93
2021/12/16 09:07:45;;;;;;;17.73;11.90;;;5.20;99.90;;;;;;4948651;28;20467;-96
2021/12/16 09:10:20;;;;;;;15.43;10.37;;;5.20;99.90;;;;;;4964969;28;20769;-94
2021/12/16 09:13:09;;;;;;;16.23;11.10;;;5.20;99.90;;;;;;4967213;28;20526;-93
2021/12/16 09:15:49;;;;;;;17.30;10.33;;;5.20;99.90;;;;;;4953716;28;20969;-95
2021/12/16 09:21:35;;;;;;;15.37;9.60;;;5.10;99.90;;;;;;4950859;28;20468;-95
2021/12/16 09:24:09;;;;;;;15.17;10.07;;;5.10;99.90;;;;;;4961018;28;20467;-95
2021/12/16 09:27:17;;;;;;;14.73;9.43;;;5.10;99.90;;;;;;4973313;28;20475;-95
2021/12/16 09:30:51;;;;;;;15.90;9.63;;;5.10;99.90;;;;;;4935665;28;20963;-96
2021/12/16 09:33:22;;;;;;;15.13;9.50;;;5.20;99.90;;;;;;4932557;28;20475;-96
2021/12/16 09:36:10;;;;;;;16.53;9.83;;;5.40;99.90;;;;;;4953445;28;20473;-96
2021/12/16 11:48:06;;;;;;;13.60;10.33;;;6.40;99.90;;;;;;4892037;29;20487;-90
2021/12/16 11:50:41;;;;;;;12.47;9.27;;;6.40;99.90;;;;;;4875833;29;20800;-90
2021/12/16 11:53:11;;;;;;;12.07;9.10;;;6.40;99.90;;;;;;4862456;29;20536;-95
2021/12/16 11:55:41;;;;;;;15.03;9.50;;;6.30;99.90;;;;;;4907492;29;20444;-91
2021/12/16 11:58:11;;;;;;;15.60;8.63;;;6.20;99.90;;;;;;4903521;29;20556;-96
2021/12/16 12:00:40;;;;;;;11.70;8.17;;;6.20;99.90;;;;;;4881227;29;20472;-96
2021/12/16 12:03:35;;;;;;;10.40;8.40;;;6.30;99.90;;;;;;4880495;29;21194;-95
2021/12/16 12:06:48;;;;;;;;;;;;;;;;;;;;;
2021/12/16 12:09:21;;;;;;;10.80;8.40;;;6.30;99.90;;;;;;4896356;29;20523;-94
2021/12/16 12:12:08;;;;;;;11.13;7.83;;;6.40;99.90;;;;;;4885314;29;20929;-92
2021/12/16 12:15:03;;;;;;;10.30;8.03;;;6.40;99.90;;;;;;4895559;29;20439;-91
2021/12/16 12:17:58;;;;;;;;;;;;;;;;;;;;;
2021/12/16 12:20:43;;;;;;;;;;;;;;;;;;;;;
2021/12/16 12:23:41;;;;;;;10.93;7.40;;;6.40;99.90;;;;;;4904237;29;20448;-94
2021/12/16 12:26:20;;;;;;;15.47;11.60;;;6.40;99.90;;;;;;4894817;29;20973;-93
2021/12/16 12:29:13;;;;;;;;;;;;;;;;;;;;;
2021/12/16 12:32:28;;;;;;;;;;;;;;;;;;;;;
2021/12/16 12:35:17;;;;;;;;;;;;;;;;;;;;;
2021/12/16 12:37:51;;;;;;;9.00;7.17;;;6.50;99.90;;;;;;4896845;29;20713;-95
2021/12/16 12:43:37;;;;;;;12.37;6.73;;;6.40;99.90;;;;;;4882631;29;20463;-94
2021/12/16 12:46:38;;;;;;;9.90;7.30;;;6.40;99.90;;;;;;4891220;29;20568;-93
2021/12/16 12:52:14;;;;;;;21.47;13.53;;;6.70;99.90;;;;;;4961446;23;20523;-94
2021/12/16 12:54:51;;;;;;;23.70;14.40;;;6.70;99.90;;;;;;4910499;29;20476;-95
2021/12/16 12:57:46;;;;;;;17.50;13.80;;;6.70;99.90;;;;;;4911448;28;20521;-94
2021/12/16 13:00:36;;;;;;;12.23;8.73;;;6.60;99.90;;;;;;4907752;29;20933;-95
2021/12/16 13:03:06;;;;;;;11.23;8.40;;;6.60;99.90;;;;;;4901733;29;20486;-95
2021/12/16 13:06:02;;;;;;;12.20;9.27;;;6.70;99.90;;;;;;4896191;29;20469;-93
2021/12/16 13:08:51;;;;;;;15.83;10.63;;;6.70;99.90;;;;;;4911898;29;20920;-96
2021/12/16 13:11:43;;;;;;;;;;;;;;;;;;;;;
2021/12/16 13:28:53;;;;;;;11.80;8.40;;;6.90;99.90;;;;;;4908096;29;20664;-93
2021/12/16 13:35:32;;;;;;;11.50;8.13;;;6.90;99.90;;;;;;4894620;29;20463;-94
2021/12/16 13:38:05;;;;;;;11.33;8.50;;;7.10;99.90;;;;;;4914012;29;21054;-93
2021/12/16 13:40:40;;;;;;;9.60;7.77;;;7.10;99.90;;;;;;4914051;29;20576;-93
2021/12/16 13:43:30;;;;;;;12.40;8.23;;;7.10;99.90;;;;;;4910399;29;20492;-93
2021/12/16 14:15:43;;;;;;;;;;;;;;;;;;;;;
2021/12/16 14:24:58;;;;;;;10.37;8.40;;;6.80;99.90;;;;;;4913682;29;20458;-93
2021/12/16 14:46:20;;;;;;;13.70;9.77;;;6.30;99.90;;;;;;4913456;29;20976;-92
2021/12/16 14:49:13;;;;;;;11.97;9.73;;;6.20;99.90;;;;;;4889154;29;20455;-95
2021/12/16 14:52:11;;;;;;;12.10;8.23;;;6.20;99.90;;;;;;4912915;29;21156;-93
2021/12/16 14:58:14;;;;;;;10.97;8.57;;;6.20;99.90;;;;;;4895788;29;20809;-93
2021/12/16 15:00:52;;;;;;;15.83;8.70;;;6.10;99.90;;;;;;4910048;29;20643;-92
2021/12/16 15:03:43;;;;;;;11.63;8.50;;;6.10;99.90;;;;;;4908749;29;20470;-91
2021/12/16 15:06:40;;;;;;;10.63;7.47;;;6.10;99.90;;;;;;4898119;29;20510;-93
2021/12/16 15:09:41;;;;;;;;;;;;;;;;;;;;;
2021/12/16 15:12:29;;;;;;;10.70;7.40;;;6.10;99.90;;;;;;4823478;29;20500;-95
2021/12/16 15:31:50;;;;;;;8.80;7.70;;;6.00;99.90;;;;;;4914564;29;20555;-91
2021/12/16 15:40:34;;;;;;;10.87;7.50;;;5.50;99.90;;;;;;4934993;29;20507;-95
2021/12/16 15:43:16;;;;;;;9.50;7.80;;;5.50;99.90;;;;;;4912060;29;20447;-95
2021/12/16 15:46:06;;;;;;;12.83;7.57;;;5.40;99.90;;;;;;4902649;29;20498;-93
2021/12/16 15:48:47;;;;;;;;;;;;;;;;;;;;;
2021/12/16 15:51:13;;;;;;;10.37;7.97;;;5.10;99.90;;;;;;4917791;29;20971;-93
2021/12/16 15:53:49;;;;;;;11.67;8.30;;;5.00;99.90;;;;;;4892926;29;20455;-92
2021/12/16 15:56:25;;;;;;;11.73;7.93;;;4.90;99.90;;;;;;4900310;29;21677;-93
2021/12/16 15:59:04;;;;;;;9.87;8.10;;;4.80;99.90;;;;;;4908310;29;20459;-92
2021/12/16 16:01:35;;;;;;;11.53;7.57;;;4.60;99.90;;;;;;4895484;29;20487;-92
2021/12/16 16:04:09;;;;;;;13.43;8.10;;;4.50;99.90;;;;;;4909069;29;20455;-92
2021/12/16 16:06:40;;;;;;;9.13;7.17;;;4.50;99.90;;;;;;4913219;29;20469;-92
2021/12/16 16:09:10;;;;;;;7.50;6.60;;;4.40;99.90;;;;;;4917743;29;20465;-92
2021/12/16 16:11:39;;;;;;;9.40;6.37;;;4.30;99.90;;;;;;4895161;29;20490;-94
2021/12/16 16:14:12;;;;;;;10.40;6.57;;;4.20;99.90;;;;;;4902240;29;20471;-91
2021/12/16 16:16:45;;;;;;;12.63;6.77;;;4.10;99.90;;;;;;4915211;29;20950;-93
2021/12/16 16:19:18;;;;;;;7.30;5.97;;;4.00;99.90;;;;;;4899303;29;22700;-93
2021/12/16 16:21:48;;;;;;;8.67;7.10;;;4.10;99.90;;;;;;4893848;29;20471;-93
2021/12/16 16:24:23;;;;;;;8.87;6.80;;;4.00;99.90;;;;;;4901752;29;20998;-93
2021/12/16 16:26:53;;;;;;;9.70;7.70;;;3.90;99.90;;;;;;4896432;29;20453;-91
2021/12/16 16:29:23;;;;;;;9.90;7.37;;;3.80;99.90;;;;;;4912677;29;20485;-93
2021/12/16 16:31:50;;;;;;;7.53;6.63;;;3.80;99.90;;;;;;4895915;29;21010;-92
2021/12/16 16:34:44;;;;;;;7.93;6.53;;;3.70;99.90;;;;;;4912081;29;20902;-93
2021/12/16 16:37:11;;;;;;;8.77;6.20;;;3.80;99.90;;;;;;4887452;29;20557;-93
2021/12/16 16:39:40;;;;;;;30.00;22.90;;;3.70;99.90;;;;;;4914886;29;20506;-92
2021/12/16 16:42:13;;;;;;;17.20;13.60;;;3.60;99.90;;;;;;4907462;29;20465;-92
2021/12/16 16:44:45;;;;;;;12.70;9.10;;;3.60;99.90;;;;;;4913246;29;20501;-93
2021/12/16 16:47:17;;;;;;;12.20;8.70;;;3.60;99.90;;;;;;4899354;29;20829;-93
2021/12/16 16:49:53;;;;;;;9.27;8.10;;;3.60;99.90;;;;;;4899257;29;20464;-92
2021/12/16 16:52:20;;;;;;;9.93;8.87;;;3.50;99.90;;;;;;4899152;29;20525;-93
2021/12/16 16:55:14;;;;;;;9.57;7.40;;;3.50;99.90;;;;;;4898818;29;20459;-92
2021/12/16 16:57:47;;;;;;;9.83;6.93;;;3.40;99.90;;;;;;4895409;29;20541;-93
2021/12/16 17:00:43;;;;;;;9.03;6.50;;;3.30;99.90;;;;;;4913664;29;21075;-92
2021/12/16 17:03:15;;;;;;;18.93;14.53;;;3.30;99.90;;;;;;4893519;29;20492;-92
2021/12/16 17:05:45;;;;;;;33.10;27.43;;;3.30;99.90;;;;;;4895161;29;20465;-93
2021/12/16 17:08:18;;;;;;;20.30;13.70;;;3.30;99.90;;;;;;4895557;29;20870;-93
2021/12/16 17:10:53;;;;;;;11.80;8.90;;;3.20;99.90;;;;;;4900353;29;20478;-92
2021/12/16 17:13:25;;;;;;;8.67;5.77;;;3.10;99.90;;;;;;4892817;29;20483;-91
2021/12/16 17:18:44;;;;;;;9.20;6.30;;;3.10;99.90;;;;;;4906863;29;21431;-91
2021/12/16 17:21:33;;;;;;;9.67;6.80;;;3.10;99.90;;;;;;4909892;28;20468;-86
2021/12/16 17:24:14;;;;;;;13.20;7.00;;;2.90;99.90;;;;;;4893676;29;20879;-86
2021/12/16 17:26:53;;;;;;;7.70;6.73;;;2.90;99.90;;;;;;4892826;29;20541;-87
2021/12/16 17:29:33;;;;;;;9.60;6.83;;;2.90;99.90;;;;;;4912210;29;20571;-86
2021/12/16 17:32:09;;;;;;;13.23;8.47;;;2.90;99.90;;;;;;4894890;29;20858;-88
2021/12/16 17:34:36;;;;;;;12.47;8.90;;;2.80;99.90;;;;;;4895692;29;20449;-86
2021/12/16 17:37:13;;;;;;;20.17;14.70;;;2.80;99.90;;;;;;4894142;29;20473;-86
2021/12/16 17:40:08;;;;;;;23.13;19.93;;;2.90;99.90;;;;;;4905841;29;20460;-87
2021/12/16 17:42:43;;;;;;;18.27;13.63;;;2.90;99.90;;;;;;4892951;28;20537;-87
2021/12/16 17:45:31;;;;;;;15.67;10.30;;;2.90;99.90;;;;;;4894562;29;20565;-87
2021/12/16 17:48:01;;;;;;;11.00;8.90;;;2.70;99.90;;;;;;4891804;29;20455;-90
2021/12/16 17:50:43;;;;;;;9.47;7.90;;;2.70;99.90;;;;;;4894459;29;20466;-89
2021/12/16 17:53:10;;;;;;;9.30;7.17;;;2.80;99.90;;;;;;4895626;29;20490;-89
2021/12/16 17:55:40;;;;;;;9.37;7.67;;;2.70;99.90;;;;;;4895413;29;20465;-89
2021/12/16 17:58:10;;;;;;;9.60;8.03;;;2.70;99.90;;;;;;4889946;28;20458;-88
2021/12/16 18:00:50;;;;;;;8.90;7.80;;;2.60;99.90;;;;;;4904506;29;20541;-89
2021/12/16 18:03:25;;;;;;;10.13;7.83;;;2.70;99.90;;;;;;4910944;29;20452;-89
2021/12/16 18:06:12;;;;;;;10.10;8.60;;;2.70;99.90;;;;;;4895377;29;20755;-88
2021/12/16 18:08:42;;;;;;;12.53;8.70;;;2.70;99.90;;;;;;4911760;28;20955;-89
2021/12/16 18:11:19;;;;;;;12.93;10.10;;;2.70;99.90;;;;;;4910800;29;20520;-89
2021/12/16 18:13:56;;;;;;;13.97;9.97;;;2.60;99.90;;;;;;4898885;29;20535;-88
2021/12/16 18:16:28;;;;;;;23.20;14.13;;;2.60;99.90;;;;;;4899908;29;20453;-88
2021/12/16 18:18:58;;;;;;;17.33;14.50;;;2.70;99.90;;;;;;4898609;29;20455;-88
2021/12/16 18:21:24;;;;;;;44.10;29.20;;;2.70;99.90;;;;;;4899584;29;20442;-88
2021/12/16 18:23:53;;;;;;;66.57;44.47;;;2.60;99.90;;;;;;4890635;29;20510;-88
2021/12/16 18:26:20;;;;;;;44.20;31.03;;;2.60;99.90;;;;;;4896789;29;20470;-88
2021/12/16 18:28:51;;;;;;;44.20;30.37;;;2.60;99.90;;;;;;4894243;29;20591;-89
2021/12/16 18:31:28;;;;;;;115.67;78.03;;;2.50;99.90;;;;;;4910607;29;20844;-89
2021/12/16 18:33:56;;;;;;;154.40;102.47;;;2.50;99.90;;;;;;4912080;29;20461;-89
2021/12/16 18:36:38;;;;;;;53.17;36.30;;;2.50;99.90;;;;;;4890615;29;20698;-90
2021/12/16 18:39:04;;;;;;;26.27;19.20;;;2.40;99.90;;;;;;4904770;29;20456;-89
2021/12/16 18:41:35;;;;;;;14.60;11.30;;;2.40;99.90;;;;;;4893826;29;20456;-89
2021/12/16 18:44:02;;;;;;;11.63;9.50;;;2.40;99.90;;;;;;4892807;29;20257;-90
2021/12/16 18:46:28;;;;;;;10.13;8.73;;;2.40;99.90;;;;;;4893768;29;20994;-88
2021/12/16 18:51:42;;;;;;;11.30;8.00;;;2.30;99.90;;;;;;4905363;29;20452;-92
2021/12/16 18:54:28;;;;;;;11.00;6.90;;;2.30;99.90;;;;;;4889849;29;20216;-88
2021/12/16 18:57:06;;;;;;;10.10;7.93;;;2.20;99.90;;;;;;4891864;29;20520;-88
2021/12/16 18:59:33;;;;;;;11.93;8.73;;;2.30;99.90;;;;;;4894853;29;20514;-88
2021/12/16 19:02:03;;;;;;;10.53;7.60;;;2.30;99.90;;;;;;4890994;29;20464;-88
2021/12/16 19:04:33;;;;;;;13.40;9.10;;;2.30;99.90;;;;;;4901335;29;20480;-89
2021/12/16 19:07:09;;;;;;;15.07;10.60;;;2.30;99.90;;;;;;4895834;29;20480;-91
2021/12/16 19:09:37;;;;;;;13.00;11.10;;;2.20;99.90;;;;;;4911919;29;20474;-92
2021/12/16 19:12:29;;;;;;;23.43;14.73;;;2.10;99.90;;;;;;4912279;29;20545;-93
2021/12/16 19:15:11;;;;;;;49.80;30.83;;;2.10;99.90;;;;;;4901817;29;20489;-94
2021/12/16 19:17:40;;;;;;;66.97;39.40;;;2.10;99.90;;;;;;4913817;29;20503;-93
2021/12/16 19:20:18;;;;;;;40.73;26.73;;;2.10;99.90;;;;;;4898606;29;20490;-93
2021/12/16 19:22:47;;;;;;;31.63;20.20;;;2.10;99.90;;;;;;4908574;29;20542;-95
2021/12/16 19:25:15;;;;;;;25.40;17.33;;;2.10;99.90;;;;;;4908434;29;20562;-96
2021/12/16 19:27:43;;;;;;;47.73;30.60;;;2.10;99.90;;;;;;4906358;29;20460;-94
2021/12/16 19:30:12;;;;;;;46.10;32.27;;;2.10;99.90;;;;;;4914398;29;20464;-92
2021/12/16 19:32:38;;;;;;;56.83;36.77;;;2.10;99.90;;;;;;4902313;29;20503;-95
2021/12/16 19:35:07;;;;;;;57.70;37.40;;;2.20;99.90;;;;;;4904486;29;20869;-94
2021/12/16 19:37:36;;;;;;;37.37;27.40;;;2.10;99.90;;;;;;4898733;29;20491;-94
2021/12/16 19:40:11;;;;;;;27.13;20.10;;;2.20;99.90;;;;;;4911226;29;21608;-93
2021/12/16 19:43:07;;;;;;;13.27;9.83;;;2.20;99.90;;;;;;4883163;29;20828;-93
2021/12/16 19:45:36;;;;;;;12.07;8.80;;;2.00;99.90;;;;;;4895140;29;20446;-92
2021/12/16 19:48:04;;;;;;;12.33;8.80;;;1.90;99.90;;;;;;4906371;29;20555;-91
2021/12/16 19:50:34;;;;;;;12.30;8.70;;;1.90;99.90;;;;;;4892578;29;20577;-93
2021/12/16 19:53:00;;;;;;;13.40;9.80;;;1.90;99.90;;;;;;4897630;29;20485;-92
2021/12/16 19:55:27;;;;;;;16.13;10.87;;;1.90;99.90;;;;;;4897636;29;20443;-94
2021/12/16 19:57:53;;;;;;;15.97;10.20;;;2.00;99.90;;;;;;4896993;29;21880;-95
2021/12/16 20:00:29;;;;;;;13.03;9.40;;;2.00;99.90;;;;;;4909315;29;20545;-95
2021/12/16 20:03:07;;;;;;;11.10;8.50;;;1.90;99.90;;;;;;4908855;29;20447;-93
2021/12/16 20:05:57;;;;;;;10.53;7.97;;;1.90;99.90;;;;;;4908414;29;20471;-95
2021/12/16 20:08:23;;;;;;;11.20;8.13;;;1.90;99.90;;;;;;4902109;29;20444;-92
2021/12/16 20:10:53;;;;;;;15.50;11.30;;;1.90;99.90;;;;;;4911135;29;20921;-92
2021/12/16 20:13:22;;;;;;;16.63;12.00;;;1.90;99.90;;;;;;4889814;29;20487;-89
2021/12/16 20:15:55;;;;;;;13.93;12.20;;;1.90;99.90;;;;;;4905546;29;22800;-90
2021/12/16 20:18:25;;;;;;;14.17;12.47;;;1.80;99.90;;;;;;4882434;29;20543;-90
2021/12/16 20:21:00;;;;;;;14.30;11.00;;;1.80;99.90;;;;;;4897958;29;20881;-91
2021/12/16 20:23:31;;;;;;;15.10;10.87;;;1.80;99.90;;;;;;4897877;29;20494;-90
2021/12/16 20:26:14;;;;;;;13.17;10.13;;;1.80;99.90;;;;;;4892961;29;20466;-89
2021/12/16 20:28:54;;;;;;;11.33;9.60;;;1.70;99.90;;;;;;4909904;29;20590;-89
2021/12/16 20:31:22;;;;;;;12.80;9.63;;;1.70;99.90;;;;;;4888117;29;20453;-90
2021/12/16 20:33:53;;;;;;;11.27;9.13;;;1.70;99.90;;;;;;4899055;29;20543;-90
2021/12/16 20:36:28;;;;;;;9.03;8.10;;;1.70;99.90;;;;;;4896597;29;20456;-90
2021/12/16 20:38:57;;;;;;;9.00;7.43;;;1.70;99.90;;;;;;4898261;29;20510;-90
2021/12/16 20:41:31;;;;;;;11.70;8.40;;;1.70;99.90;;;;;;4907332;29;20492;-90
2021/12/16 20:53:11;;;;;;;10.33;8.50;;;1.50;99.90;;;;;;4859590;29;20905;-93
2021/12/16 20:55:38;;;;;;;11.93;9.50;;;1.50;99.90;;;;;;4911783;29;20555;-92
2021/12/16 20:58:12;;;;;;;10.33;8.53;;;1.60;99.90;;;;;;4906919;29;20455;-93
2021/12/16 21:00:41;;;;;;;11.23;9.40;;;1.50;99.90;;;;;;4901044;29;20475;-95
2021/12/16 21:03:10;;;;;;;11.90;9.10;;;1.50;99.90;;;;;;4923652;29;21008;-94
2021/12/16 21:05:57;;;;;;;10.23;9.07;;;1.40;99.90;;;;;;4932940;29;20463;-95